SCTN

Chaitén Airport

Chaiten, Chile
METAR SCTN 151800Z 24007KT 9999 FEW030 SCT045 12/03 Q1021
Observed Flight Rules
Nov-15 @ 18:00 UTC (58 minutes ago) Visual Flight Rules
Wind Visibility Clouds
240° at 7 knots 10,000+ meters
  • Few at 3,000' AGL
  • Scattered at 4,500' AGL
Temperatures Readings
Current 12°C / 54°F
Dewpoint 3°C / 37°F
Humidity 54%
Altimeter 30.15" Hg
Pressure 1021 hPa
Elevation 4
METAR SCTN 151800Z 24007KT 9999 FEW030 SCT045 12/03 Q1021
Observed Flight Rules
Nov-15 @ 18:00 UTC
(58 minutes ago)
VFR
Wind Visibility
240° at 7 knots 10,000+ meters
Clouds
  • Few at 3,000' AGL
  • Scattered at 4,500' AGL
Temperature Dewpoint
12°C / 54°F 3°C / 37°F
Humidity Altimeter Pressure
54% 30.15" Hg 1021 hPa